sensor_id;sensor_type;location;lat;lon;timestamp;P1;durP1;ratioP1;P2;durP2;ratioP2
30303;SDS011;17112;48.636;10.152;2023-08-01T00:01:51;6.97;;;3.38;;
30303;SDS011;17112;48.636;10.152;2023-08-01T00:04:16;6.50;;;3.00;;
30303;SDS011;17112;48.636;10.152;2023-08-01T00:06:42;8.02;;;2.92;;
30303;SDS011;17112;48.636;10.152;2023-08-01T00:09:07;5.18;;;3.10;;
30303;SDS011;17112;48.636;10.152;2023-08-01T00:11:33;5.35;;;3.00;;
30303;SDS011;17112;48.636;10.152;2023-08-01T00:13:59;4.70;;;2.78;;
30303;SDS011;17112;48.636;10.152;2023-08-01T00:16:24;4.45;;;2.65;;
30303;SDS011;17112;48.636;10.152;2023-08-01T00:18:50;7.03;;;3.25;;
30303;SDS011;17112;48.636;10.152;2023-08-01T00:21:16;5.85;;;2.97;;
30303;SDS011;17112;48.636;10.152;2023-08-01T00:23:41;9.10;;;3.00;;
30303;SDS011;17112;48.636;10.152;2023-08-01T00:26:07;4.90;;;3.13;;
30303;SDS011;17112;48.636;10.152;2023-08-01T00:28:32;5.00;;;3.15;;
30303;SDS011;17112;48.636;10.152;2023-08-01T00:31:05;5.05;;;3.00;;
30303;SDS011;17112;48.636;10.152;2023-08-01T00:33:33;6.38;;;2.88;;
30303;SDS011;17112;48.636;10.152;2023-08-01T00:35:59;4.95;;;2.63;;
30303;SDS011;17112;48.636;10.152;2023-08-01T00:38:25;5.22;;;2.78;;
30303;SDS011;17112;48.636;10.152;2023-08-01T00:40:51;6.50;;;2.28;;
30303;SDS011;17112;48.636;10.152;2023-08-01T00:43:17;5.65;;;2.90;;
30303;SDS011;17112;48.636;10.152;2023-08-01T00:45:43;5.72;;;3.13;;
30303;SDS011;17112;48.636;10.152;2023-08-01T00:48:10;6.07;;;2.97;;
30303;SDS011;17112;48.636;10.152;2023-08-01T00:50:36;5.53;;;3.13;;
30303;SDS011;17112;48.636;10.152;2023-08-01T00:53:02;5.13;;;2.83;;
30303;SDS011;17112;48.636;10.152;2023-08-01T00:55:28;5.43;;;2.95;;
30303;SDS011;17112;48.636;10.152;2023-08-01T00:57:55;5.70;;;2.92;;
30303;SDS011;17112;48.636;10.152;2023-08-01T01:00:21;4.35;;;3.00;;
30303;SDS011;17112;48.636;10.152;2023-08-01T01:02:46;3.83;;;2.80;;
30303;SDS011;17112;48.636;10.152;2023-08-01T01:05:12;4.43;;;2.65;;
30303;SDS011;17112;48.636;10.152;2023-08-01T01:07:39;5.53;;;3.03;;
30303;SDS011;17112;48.636;10.152;2023-08-01T01:10:05;4.25;;;2.90;;
30303;SDS011;17112;48.636;10.152;2023-08-01T01:12:31;9.30;;;2.83;;
30303;SDS011;17112;48.636;10.152;2023-08-01T01:14:56;12.13;;;2.88;;
30303;SDS011;17112;48.636;10.152;2023-08-01T01:17:22;5.00;;;2.95;;
30303;SDS011;17112;48.636;10.152;2023-08-01T01:19:48;4.75;;;3.08;;
30303;SDS011;17112;48.636;10.152;2023-08-01T01:22:13;5.47;;;3.17;;
30303;SDS011;17112;48.636;10.152;2023-08-01T01:24:41;8.10;;;3.15;;
30303;SDS011;17112;48.636;10.152;2023-08-01T01:27:07;5.60;;;2.78;;
30303;SDS011;17112;48.636;10.152;2023-08-01T01:29:34;6.47;;;3.15;;
30303;SDS011;17112;48.636;10.152;2023-08-01T01:32:02;5.13;;;2.80;;
30303;SDS011;17112;48.636;10.152;2023-08-01T01:34:29;5.15;;;3.25;;
30303;SDS011;17112;48.636;10.152;2023-08-01T01:36:55;4.07;;;2.88;;
30303;SDS011;17112;48.636;10.152;2023-08-01T01:39:20;6.50;;;3.38;;
30303;SDS011;17112;48.636;10.152;2023-08-01T01:41:46;3.92;;;2.58;;
30303;SDS011;17112;48.636;10.152;2023-08-01T01:44:12;4.78;;;2.78;;
30303;SDS011;17112;48.636;10.152;2023-08-01T01:46:37;4.70;;;2.90;;
30303;SDS011;17112;48.636;10.152;2023-08-01T01:49:03;6.45;;;2.90;;
30303;SDS011;17112;48.636;10.152;2023-08-01T01:51:29;6.13;;;3.10;;
30303;SDS011;17112;48.636;10.152;2023-08-01T01:53:55;4.30;;;2.80;;
30303;SDS011;17112;48.636;10.152;2023-08-01T01:56:21;5.70;;;3.53;;
30303;SDS011;17112;48.636;10.152;2023-08-01T01:58:47;5.50;;;3.15;;
30303;SDS011;17112;48.636;10.152;2023-08-01T02:01:13;3.75;;;2.88;;
30303;SDS011;17112;48.636;10.152;2023-08-01T02:03:38;7.65;;;3.10;;
30303;SDS011;17112;48.636;10.152;2023-08-01T02:06:04;8.52;;;3.17;;
30303;SDS011;17112;48.636;10.152;2023-08-01T02:08:30;6.13;;;2.67;;
30303;SDS011;17112;48.636;10.152;2023-08-01T02:10:55;10.85;;;3.28;;
30303;SDS011;17112;48.636;10.152;2023-08-01T02:13:23;9.32;;;3.80;;
30303;SDS011;17112;48.636;10.152;2023-08-01T02:15:52;4.60;;;2.95;;
30303;SDS011;17112;48.636;10.152;2023-08-01T02:18:19;6.22;;;3.65;;
30303;SDS011;17112;48.636;10.152;2023-08-01T02:20:45;5.72;;;3.55;;
30303;SDS011;17112;48.636;10.152;2023-08-01T02:23:10;6.68;;;3.22;;
30303;SDS011;17112;48.636;10.152;2023-08-01T02:25:39;7.75;;;3.50;;
30303;SDS011;17112;48.636;10.152;2023-08-01T02:28:06;3.63;;;2.72;;
30303;SDS011;17112;48.636;10.152;2023-08-01T02:30:32;5.63;;;2.83;;
30303;SDS011;17112;48.636;10.152;2023-08-01T02:33:01;6.57;;;2.88;;
30303;SDS011;17112;48.636;10.152;2023-08-01T02:35:27;4.10;;;3.03;;
30303;SDS011;17112;48.636;10.152;2023-08-01T02:37:54;7.78;;;3.05;;
30303;SDS011;17112;48.636;10.152;2023-08-01T02:40:20;4.90;;;2.83;;
30303;SDS011;17112;48.636;10.152;2023-08-01T02:42:46;5.88;;;3.00;;
30303;SDS011;17112;48.636;10.152;2023-08-01T02:45:11;5.93;;;3.00;;
30303;SDS011;17112;48.636;10.152;2023-08-01T02:47:37;4.45;;;2.95;;
30303;SDS011;17112;48.636;10.152;2023-08-01T02:50:03;5.97;;;3.05;;
30303;SDS011;17112;48.636;10.152;2023-08-01T02:52:29;8.30;;;2.92;;
30303;SDS011;17112;48.636;10.152;2023-08-01T02:54:55;6.82;;;3.40;;
30303;SDS011;17112;48.636;10.152;2023-08-01T02:57:20;4.95;;;3.15;;
30303;SDS011;17112;48.636;10.152;2023-08-01T02:59:46;5.72;;;3.10;;
30303;SDS011;17112;48.636;10.152;2023-08-01T03:02:12;5.50;;;2.80;;
30303;SDS011;17112;48.636;10.152;2023-08-01T03:04:38;4.32;;;2.90;;
30303;SDS011;17112;48.636;10.152;2023-08-01T03:07:03;4.85;;;3.17;;
30303;SDS011;17112;48.636;10.152;2023-08-01T03:09:29;5.13;;;3.28;;
30303;SDS011;17112;48.636;10.152;2023-08-01T03:11:55;4.60;;;2.95;;
30303;SDS011;17112;48.636;10.152;2023-08-01T03:14:20;6.45;;;3.38;;
30303;SDS011;17112;48.636;10.152;2023-08-01T03:16:46;6.47;;;3.65;;
30303;SDS011;17112;48.636;10.152;2023-08-01T03:19:11;6.80;;;3.83;;
30303;SDS011;17112;48.636;10.152;2023-08-01T03:21:38;5.82;;;3.58;;
30303;SDS011;17112;48.636;10.152;2023-08-01T03:24:04;5.20;;;3.30;;
30303;SDS011;17112;48.636;10.152;2023-08-01T03:26:33;7.60;;;3.65;;
30303;SDS011;17112;48.636;10.152;2023-08-01T03:29:02;5.55;;;3.45;;
30303;SDS011;17112;48.636;10.152;2023-08-01T03:31:28;7.93;;;3.47;;
30303;SDS011;17112;48.636;10.152;2023-08-01T03:33:54;6.07;;;3.00;;
30303;SDS011;17112;48.636;10.152;2023-08-01T03:36:20;6.00;;;3.30;;
30303;SDS011;17112;48.636;10.152;2023-08-01T03:38:46;8.20;;;3.53;;
30303;SDS011;17112;48.636;10.152;2023-08-01T03:41:12;9.25;;;3.22;;
30303;SDS011;17112;48.636;10.152;2023-08-01T03:43:38;6.03;;;3.05;;
30303;SDS011;17112;48.636;10.152;2023-08-01T03:46:04;6.20;;;3.30;;
30303;SDS011;17112;48.636;10.152;2023-08-01T03:48:30;6.28;;;3.45;;
30303;SDS011;17112;48.636;10.152;2023-08-01T03:50:56;5.25;;;3.10;;
30303;SDS011;17112;48.636;10.152;2023-08-01T03:53:21;3.58;;;2.92;;
30303;SDS011;17112;48.636;10.152;2023-08-01T03:55:47;4.45;;;3.22;;
30303;SDS011;17112;48.636;10.152;2023-08-01T03:58:13;5.82;;;3.13;;
30303;SDS011;17112;48.636;10.152;2023-08-01T04:00:39;5.63;;;3.20;;
30303;SDS011;17112;48.636;10.152;2023-08-01T04:03:05;4.15;;;3.00;;
30303;SDS011;17112;48.636;10.152;2023-08-01T04:05:31;7.20;;;3.00;;
30303;SDS011;17112;48.636;10.152;2023-08-01T04:07:57;6.30;;;3.28;;
30303;SDS011;17112;48.636;10.152;2023-08-01T04:10:22;4.40;;;2.75;;
30303;SDS011;17112;48.636;10.152;2023-08-01T04:12:48;4.88;;;3.00;;
30303;SDS011;17112;48.636;10.152;2023-08-01T04:15:14;3.25;;;2.83;;
30303;SDS011;17112;48.636;10.152;2023-08-01T04:17:41;4.88;;;3.20;;
30303;SDS011;17112;48.636;10.152;2023-08-01T04:20:06;6.30;;;2.90;;
30303;SDS011;17112;48.636;10.152;2023-08-01T04:22:32;3.97;;;2.78;;
30303;SDS011;17112;48.636;10.152;2023-08-01T04:24:58;6.28;;;2.88;;
30303;SDS011;17112;48.636;10.152;2023-08-01T04:27:24;5.57;;;2.75;;
30303;SDS011;17112;48.636;10.152;2023-08-01T04:29:49;5.57;;;3.10;;
30303;SDS011;17112;48.636;10.152;2023-08-01T04:32:15;5.32;;;2.95;;
30303;SDS011;17112;48.636;10.152;2023-08-01T04:34:41;8.50;;;3.10;;
30303;SDS011;17112;48.636;10.152;2023-08-01T04:37:07;4.18;;;3.03;;
30303;SDS011;17112;48.636;10.152;2023-08-01T04:39:33;6.57;;;3.17;;
30303;SDS011;17112;48.636;10.152;2023-08-01T04:41:59;4.40;;;2.92;;
30303;SDS011;17112;48.636;10.152;2023-08-01T04:44:24;4.03;;;2.45;;
30303;SDS011;17112;48.636;10.152;2023-08-01T04:46:50;6.28;;;2.92;;
30303;SDS011;17112;48.636;10.152;2023-08-01T04:49:17;6.63;;;2.78;;
30303;SDS011;17112;48.636;10.152;2023-08-01T04:51:44;5.10;;;2.97;;
30303;SDS011;17112;48.636;10.152;2023-08-01T04:54:09;4.28;;;2.50;;
30303;SDS011;17112;48.636;10.152;2023-08-01T04:56:35;5.55;;;2.90;;
30303;SDS011;17112;48.636;10.152;2023-08-01T04:59:01;4.43;;;2.90;;
30303;SDS011;17112;48.636;10.152;2023-08-01T05:01:27;3.92;;;2.80;;
30303;SDS011;17112;48.636;10.152;2023-08-01T05:03:52;5.35;;;3.03;;
30303;SDS011;17112;48.636;10.152;2023-08-01T05:06:18;4.65;;;2.63;;
30303;SDS011;17112;48.636;10.152;2023-08-01T05:08:44;6.72;;;2.90;;
30303;SDS011;17112;48.636;10.152;2023-08-01T05:11:09;6.40;;;2.67;;
30303;SDS011;17112;48.636;10.152;2023-08-01T05:13:35;4.22;;;2.88;;
30303;SDS011;17112;48.636;10.152;2023-08-01T05:16:01;5.78;;;2.83;;
30303;SDS011;17112;48.636;10.152;2023-08-01T05:21:01;6.32;;;2.60;;
30303;SDS011;17112;48.636;10.152;2023-08-01T05:23:26;9.88;;;2.80;;
30303;SDS011;17112;48.636;10.152;2023-08-01T05:25:52;4.53;;;3.10;;
30303;SDS011;17112;48.636;10.152;2023-08-01T05:28:18;5.18;;;2.83;;
30303;SDS011;17112;48.636;10.152;2023-08-01T05:30:44;5.53;;;3.22;;
30303;SDS011;17112;48.636;10.152;2023-08-01T05:33:10;15.05;;;3.67;;
30303;SDS011;17112;48.636;10.152;2023-08-01T05:35:36;15.48;;;3.72;;
30303;SDS011;17112;48.636;10.152;2023-08-01T05:38:01;13.27;;;3.72;;
30303;SDS011;17112;48.636;10.152;2023-08-01T05:40:27;6.68;;;3.40;;
30303;SDS011;17112;48.636;10.152;2023-08-01T05:42:53;3.28;;;2.55;;
30303;SDS011;17112;48.636;10.152;2023-08-01T05:45:18;4.93;;;2.70;;
30303;SDS011;17112;48.636;10.152;2023-08-01T05:47:44;6.20;;;2.80;;
30303;SDS011;17112;48.636;10.152;2023-08-01T05:50:10;5.40;;;3.13;;
30303;SDS011;17112;48.636;10.152;2023-08-01T05:52:35;6.10;;;3.10;;
30303;SDS011;17112;48.636;10.152;2023-08-01T05:55:01;6.25;;;2.78;;
30303;SDS011;17112;48.636;10.152;2023-08-01T05:57:27;6.47;;;3.17;;
30303;SDS011;17112;48.636;10.152;2023-08-01T05:59:54;3.95;;;3.00;;
30303;SDS011;17112;48.636;10.152;2023-08-01T06:02:19;5.18;;;3.03;;
30303;SDS011;17112;48.636;10.152;2023-08-01T06:04:45;6.28;;;3.22;;
30303;SDS011;17112;48.636;10.152;2023-08-01T06:07:11;6.45;;;3.22;;
30303;SDS011;17112;48.636;10.152;2023-08-01T06:09:36;9.95;;;3.00;;
30303;SDS011;17112;48.636;10.152;2023-08-01T06:12:02;8.38;;;3.33;;
30303;SDS011;17112;48.636;10.152;2023-08-01T06:14:28;6.22;;;2.92;;
30303;SDS011;17112;48.636;10.152;2023-08-01T06:16:54;8.80;;;3.38;;
30303;SDS011;17112;48.636;10.152;2023-08-01T06:19:19;5.35;;;3.40;;
30303;SDS011;17112;48.636;10.152;2023-08-01T06:21:45;6.07;;;2.88;;
30303;SDS011;17112;48.636;10.152;2023-08-01T06:24:11;5.35;;;3.20;;
30303;SDS011;17112;48.636;10.152;2023-08-01T06:26:36;4.78;;;3.08;;
30303;SDS011;17112;48.636;10.152;2023-08-01T06:29:02;7.72;;;3.47;;
30303;SDS011;17112;48.636;10.152;2023-08-01T06:31:28;4.72;;;3.30;;
30303;SDS011;17112;48.636;10.152;2023-08-01T06:33:53;5.22;;;3.13;;
30303;SDS011;17112;48.636;10.152;2023-08-01T06:36:19;5.20;;;3.03;;
30303;SDS011;17112;48.636;10.152;2023-08-01T06:38:45;5.82;;;2.95;;
30303;SDS011;17112;48.636;10.152;2023-08-01T06:41:11;12.52;;;3.50;;
30303;SDS011;17112;48.636;10.152;2023-08-01T06:43:37;6.32;;;3.10;;
30303;SDS011;17112;48.636;10.152;2023-08-01T06:46:03;5.53;;;3.00;;
30303;SDS011;17112;48.636;10.152;2023-08-01T06:48:29;5.07;;;3.20;;
30303;SDS011;17112;48.636;10.152;2023-08-01T06:50:56;6.22;;;2.92;;
30303;SDS011;17112;48.636;10.152;2023-08-01T06:53:21;7.15;;;2.85;;
30303;SDS011;17112;48.636;10.152;2023-08-01T06:55:48;7.97;;;3.20;;
30303;SDS011;17112;48.636;10.152;2023-08-01T06:58:15;4.57;;;3.30;;
30303;SDS011;17112;48.636;10.152;2023-08-01T07:00:41;10.18;;;3.30;;
30303;SDS011;17112;48.636;10.152;2023-08-01T07:03:06;12.80;;;3.25;;
30303;SDS011;17112;48.636;10.152;2023-08-01T07:05:32;6.20;;;3.20;;
30303;SDS011;17112;48.636;10.152;2023-08-01T07:07:58;6.55;;;3.08;;
30303;SDS011;17112;48.636;10.152;2023-08-01T07:10:24;9.00;;;3.47;;
30303;SDS011;17112;48.636;10.152;2023-08-01T07:12:50;8.35;;;3.08;;
30303;SDS011;17112;48.636;10.152;2023-08-01T07:15:15;5.85;;;3.10;;
30303;SDS011;17112;48.636;10.152;2023-08-01T07:17:41;5.55;;;3.03;;
30303;SDS011;17112;48.636;10.152;2023-08-01T07:20:07;5.53;;;3.00;;
30303;SDS011;17112;48.636;10.152;2023-08-01T07:22:33;5.43;;;3.20;;
30303;SDS011;17112;48.636;10.152;2023-08-01T07:24:59;8.82;;;2.95;;
30303;SDS011;17112;48.636;10.152;2023-08-01T07:27:24;5.65;;;3.00;;
30303;SDS011;17112;48.636;10.152;2023-08-01T07:29:50;7.38;;;3.20;;
30303;SDS011;17112;48.636;10.152;2023-08-01T07:32:15;6.53;;;2.80;;
30303;SDS011;17112;48.636;10.152;2023-08-01T07:34:41;6.15;;;2.95;;
30303;SDS011;17112;48.636;10.152;2023-08-01T07:37:07;5.32;;;3.20;;
30303;SDS011;17112;48.636;10.152;2023-08-01T07:39:33;4.32;;;3.20;;
30303;SDS011;17112;48.636;10.152;2023-08-01T07:42:00;6.38;;;3.70;;
30303;SDS011;17112;48.636;10.152;2023-08-01T07:44:25;7.57;;;3.03;;
30303;SDS011;17112;48.636;10.152;2023-08-01T07:46:51;6.15;;;3.20;;
30303;SDS011;17112;48.636;10.152;2023-08-01T07:49:17;4.78;;;3.65;;
30303;SDS011;17112;48.636;10.152;2023-08-01T07:51:43;6.40;;;2.97;;
30303;SDS011;17112;48.636;10.152;2023-08-01T07:54:08;5.10;;;3.20;;
30303;SDS011;17112;48.636;10.152;2023-08-01T07:56:35;3.80;;;3.10;;
30303;SDS011;17112;48.636;10.152;2023-08-01T07:59:00;6.85;;;3.50;;
30303;SDS011;17112;48.636;10.152;2023-08-01T08:01:26;6.35;;;2.72;;
30303;SDS011;17112;48.636;10.152;2023-08-01T08:03:52;8.60;;;3.45;;
30303;SDS011;17112;48.636;10.152;2023-08-01T08:06:17;4.97;;;3.13;;
30303;SDS011;17112;48.636;10.152;2023-08-01T08:08:46;4.57;;;3.35;;
30303;SDS011;17112;48.636;10.152;2023-08-01T08:11:11;5.85;;;3.47;;
30303;SDS011;17112;48.636;10.152;2023-08-01T08:13:37;9.95;;;3.75;;
30303;SDS011;17112;48.636;10.152;2023-08-01T08:16:03;4.45;;;3.03;;
30303;SDS011;17112;48.636;10.152;2023-08-01T08:18:30;6.78;;;3.42;;
30303;SDS011;17112;48.636;10.152;2023-08-01T08:20:55;13.27;;;3.60;;
30303;SDS011;17112;48.636;10.152;2023-08-01T08:23:21;5.90;;;3.33;;
30303;SDS011;17112;48.636;10.152;2023-08-01T08:25:47;4.65;;;2.97;;
30303;SDS011;17112;48.636;10.152;2023-08-01T08:28:12;8.02;;;3.25;;
30303;SDS011;17112;48.636;10.152;2023-08-01T08:30:38;4.78;;;2.92;;
30303;SDS011;17112;48.636;10.152;2023-08-01T08:33:05;4.30;;;3.22;;
30303;SDS011;17112;48.636;10.152;2023-08-01T08:35:32;4.30;;;3.15;;
30303;SDS011;17112;48.636;10.152;2023-08-01T08:38:01;4.18;;;3.03;;
30303;SDS011;17112;48.636;10.152;2023-08-01T08:40:33;7.25;;;3.40;;
30303;SDS011;17112;48.636;10.152;2023-08-01T08:43:03;5.70;;;3.67;;
30303;SDS011;17112;48.636;10.152;2023-08-01T08:45:29;6.05;;;3.17;;
30303;SDS011;17112;48.636;10.152;2023-08-01T08:48:01;6.25;;;3.20;;
30303;SDS011;17112;48.636;10.152;2023-08-01T08:50:32;7.68;;;3.10;;
30303;SDS011;17112;48.636;10.152;2023-08-01T08:53:00;5.53;;;3.38;;
30303;SDS011;17112;48.636;10.152;2023-08-01T08:55:26;5.57;;;3.28;;
30303;SDS011;17112;48.636;10.152;2023-08-01T08:57:53;3.75;;;3.25;;
30303;SDS011;17112;48.636;10.152;2023-08-01T09:00:20;5.15;;;3.15;;
30303;SDS011;17112;48.636;10.152;2023-08-01T09:02:46;6.90;;;3.28;;
30303;SDS011;17112;48.636;10.152;2023-08-01T09:05:12;4.95;;;2.92;;
30303;SDS011;17112;48.636;10.152;2023-08-01T09:07:38;4.68;;;3.28;;
30303;SDS011;17112;48.636;10.152;2023-08-01T09:10:07;7.07;;;3.78;;
30303;SDS011;17112;48.636;10.152;2023-08-01T09:12:34;10.02;;;3.90;;
30303;SDS011;17112;48.636;10.152;2023-08-01T09:15:00;9.57;;;4.50;;
30303;SDS011;17112;48.636;10.152;2023-08-01T09:17:26;9.70;;;4.32;;
30303;SDS011;17112;48.636;10.152;2023-08-01T09:20:06;11.43;;;4.28;;
30303;SDS011;17112;48.636;10.152;2023-08-01T09:22:45;6.80;;;3.97;;
30303;SDS011;17112;48.636;10.152;2023-08-01T09:25:11;5.90;;;3.55;;
30303;SDS011;17112;48.636;10.152;2023-08-01T09:27:38;6.43;;;3.80;;
30303;SDS011;17112;48.636;10.152;2023-08-01T09:30:04;7.07;;;3.50;;
30303;SDS011;17112;48.636;10.152;2023-08-01T09:32:32;6.18;;;3.78;;
30303;SDS011;17112;48.636;10.152;2023-08-01T09:34:59;6.70;;;3.88;;
30303;SDS011;17112;48.636;10.152;2023-08-01T09:37:37;8.32;;;3.80;;
30303;SDS011;17112;48.636;10.152;2023-08-01T09:40:07;6.00;;;3.85;;
30303;SDS011;17112;48.636;10.152;2023-08-01T09:42:43;5.15;;;3.75;;
30303;SDS011;17112;48.636;10.152;2023-08-01T09:45:15;5.38;;;3.53;;
30303;SDS011;17112;48.636;10.152;2023-08-01T09:47:43;3.78;;;3.20;;
30303;SDS011;17112;48.636;10.152;2023-08-01T09:50:10;6.57;;;3.78;;
30303;SDS011;17112;48.636;10.152;2023-08-01T09:52:38;5.13;;;3.72;;
30303;SDS011;17112;48.636;10.152;2023-08-01T09:55:04;5.30;;;3.40;;
30303;SDS011;17112;48.636;10.152;2023-08-01T09:57:30;7.57;;;3.45;;
30303;SDS011;17112;48.636;10.152;2023-08-01T09:59:57;7.43;;;3.55;;
30303;SDS011;17112;48.636;10.152;2023-08-01T10:02:26;6.20;;;3.70;;
30303;SDS011;17112;48.636;10.152;2023-08-01T10:04:57;4.95;;;3.35;;
30303;SDS011;17112;48.636;10.152;2023-08-01T10:07:25;5.45;;;3.55;;
30303;SDS011;17112;48.636;10.152;2023-08-01T10:09:57;4.75;;;3.33;;
30303;SDS011;17112;48.636;10.152;2023-08-01T10:12:25;4.65;;;3.42;;
30303;SDS011;17112;48.636;10.152;2023-08-01T10:14:51;5.63;;;3.42;;
30303;SDS011;17112;48.636;10.152;2023-08-01T10:17:18;4.05;;;2.88;;
30303;SDS011;17112;48.636;10.152;2023-08-01T10:19:45;4.00;;;2.83;;
30303;SDS011;17112;48.636;10.152;2023-08-01T10:22:13;5.38;;;3.03;;
30303;SDS011;17112;48.636;10.152;2023-08-01T10:24:40;3.08;;;2.70;;
30303;SDS011;17112;48.636;10.152;2023-08-01T10:29:39;3.75;;;3.08;;
30303;SDS011;17112;48.636;10.152;2023-08-01T10:32:06;3.63;;;2.90;;
30303;SDS011;17112;48.636;10.152;2023-08-01T10:34:32;5.30;;;3.08;;
30303;SDS011;17112;48.636;10.152;2023-08-01T10:36:58;5.82;;;2.88;;
30303;SDS011;17112;48.636;10.152;2023-08-01T10:39:25;4.10;;;2.88;;
30303;SDS011;17112;48.636;10.152;2023-08-01T10:42:04;4.03;;;3.10;;
30303;SDS011;17112;48.636;10.152;2023-08-01T10:44:30;3.03;;;2.67;;
30303;SDS011;17112;48.636;10.152;2023-08-01T10:47:02;3.83;;;2.22;;
30303;SDS011;17112;48.636;10.152;2023-08-01T10:49:33;3.22;;;2.50;;
30303;SDS011;17112;48.636;10.152;2023-08-01T10:52:15;3.97;;;2.17;;
30303;SDS011;17112;48.636;10.152;2023-08-01T10:54:48;3.42;;;2.33;;
30303;SDS011;17112;48.636;10.152;2023-08-01T10:57:26;3.10;;;2.00;;
30303;SDS011;17112;48.636;10.152;2023-08-01T10:59:53;2.95;;;2.25;;
30303;SDS011;17112;48.636;10.152;2023-08-01T11:02:23;3.47;;;2.25;;
30303;SDS011;17112;48.636;10.152;2023-08-01T11:04:56;3.03;;;2.13;;
30303;SDS011;17112;48.636;10.152;2023-08-01T11:07:26;2.80;;;1.60;;
30303;SDS011;17112;48.636;10.152;2023-08-01T11:12:31;2.85;;;2.00;;
30303;SDS011;17112;48.636;10.152;2023-08-01T11:15:03;1.70;;;1.42;;
30303;SDS011;17112;48.636;10.152;2023-08-01T11:17:31;1.73;;;1.33;;
30303;SDS011;17112;48.636;10.152;2023-08-01T11:20:01;2.03;;;1.40;;
30303;SDS011;17112;48.636;10.152;2023-08-01T11:22:29;1.38;;;1.23;;
30303;SDS011;17112;48.636;10.152;2023-08-01T11:24:55;3.10;;;1.70;;
30303;SDS011;17112;48.636;10.152;2023-08-01T11:27:21;1.30;;;1.20;;
30303;SDS011;17112;48.636;10.152;2023-08-01T11:29:46;1.48;;;1.00;;
30303;SDS011;17112;48.636;10.152;2023-08-01T11:32:12;2.42;;;1.40;;
30303;SDS011;17112;48.636;10.152;2023-08-01T11:34:41;2.45;;;1.20;;
30303;SDS011;17112;48.636;10.152;2023-08-01T11:37:11;1.20;;;1.10;;
30303;SDS011;17112;48.636;10.152;2023-08-01T11:39:38;1.60;;;1.23;;
30303;SDS011;17112;48.636;10.152;2023-08-01T11:42:04;2.35;;;1.38;;
30303;SDS011;17112;48.636;10.152;2023-08-01T11:44:30;2.75;;;1.70;;
30303;SDS011;17112;48.636;10.152;2023-08-01T11:46:57;1.95;;;1.70;;
30303;SDS011;17112;48.636;10.152;2023-08-01T11:49:23;1.77;;;1.60;;
30303;SDS011;17112;48.636;10.152;2023-08-01T11:51:49;3.03;;;1.60;;
30303;SDS011;17112;48.636;10.152;2023-08-01T11:54:15;1.63;;;1.50;;
30303;SDS011;17112;48.636;10.152;2023-08-01T11:56:42;3.10;;;1.75;;
30303;SDS011;17112;48.636;10.152;2023-08-01T11:59:09;1.50;;;1.35;;
30303;SDS011;17112;48.636;10.152;2023-08-01T12:01:39;3.83;;;1.50;;
30303;SDS011;17112;48.636;10.152;2023-08-01T12:04:05;1.98;;;1.20;;
30303;SDS011;17112;48.636;10.152;2023-08-01T12:06:31;1.40;;;1.15;;
30303;SDS011;17112;48.636;10.152;2023-08-01T12:09:05;1.25;;;1.10;;
30303;SDS011;17112;48.636;10.152;2023-08-01T12:11:41;1.38;;;1.08;;
30303;SDS011;17112;48.636;10.152;2023-08-01T12:14:10;2.15;;;0.70;;
30303;SDS011;17112;48.636;10.152;2023-08-01T12:16:39;1.80;;;1.00;;
30303;SDS011;17112;48.636;10.152;2023-08-01T12:19:17;1.83;;;1.00;;
30303;SDS011;17112;48.636;10.152;2023-08-01T12:21:44;1.20;;;0.93;;
30303;SDS011;17112;48.636;10.152;2023-08-01T12:24:10;0.70;;;0.70;;
30303;SDS011;17112;48.636;10.152;2023-08-01T12:26:36;1.83;;;1.08;;
30303;SDS011;17112;48.636;10.152;2023-08-01T12:29:01;1.15;;;0.70;;
30303;SDS011;17112;48.636;10.152;2023-08-01T12:31:27;1.50;;;0.70;;
30303;SDS011;17112;48.636;10.152;2023-08-01T12:33:53;1.00;;;0.80;;
30303;SDS011;17112;48.636;10.152;2023-08-01T12:36:19;0.80;;;0.80;;
30303;SDS011;17112;48.636;10.152;2023-08-01T12:38:46;3.00;;;0.70;;
30303;SDS011;17112;48.636;10.152;2023-08-01T12:41:11;1.35;;;0.70;;
30303;SDS011;17112;48.636;10.152;2023-08-01T12:43:37;0.70;;;0.63;;
30303;SDS011;17112;48.636;10.152;2023-08-01T12:46:03;1.27;;;0.82;;
30303;SDS011;17112;48.636;10.152;2023-08-01T12:48:29;0.93;;;0.60;;
30303;SDS011;17112;48.636;10.152;2023-08-01T12:50:55;2.00;;;0.65;;
30303;SDS011;17112;48.636;10.152;2023-08-01T12:53:21;0.68;;;0.60;;
30303;SDS011;17112;48.636;10.152;2023-08-01T12:55:48;0.60;;;0.60;;
30303;SDS011;17112;48.636;10.152;2023-08-01T12:58:15;2.03;;;0.57;;
30303;SDS011;17112;48.636;10.152;2023-08-01T13:00:41;0.77;;;0.77;;
30303;SDS011;17112;48.636;10.152;2023-08-01T13:03:08;0.70;;;0.70;;
30303;SDS011;17112;48.636;10.152;2023-08-01T13:05:35;0.70;;;0.70;;
30303;SDS011;17112;48.636;10.152;2023-08-01T13:08:01;0.70;;;0.70;;
30303;SDS011;17112;48.636;10.152;2023-08-01T13:10:34;1.65;;;0.90;;
30303;SDS011;17112;48.636;10.152;2023-08-01T13:13:01;1.13;;;0.70;;
30303;SDS011;17112;48.636;10.152;2023-08-01T13:15:27;1.88;;;0.50;;
30303;SDS011;17112;48.636;10.152;2023-08-01T13:17:53;1.23;;;0.77;;
30303;SDS011;17112;48.636;10.152;2023-08-01T13:20:19;1.45;;;0.80;;
30303;SDS011;17112;48.636;10.152;2023-08-01T13:22:46;1.95;;;0.70;;
30303;SDS011;17112;48.636;10.152;2023-08-01T13:25:13;0.80;;;0.63;;
30303;SDS011;17112;48.636;10.152;2023-08-01T13:27:39;3.85;;;0.85;;
30303;SDS011;17112;48.636;10.152;2023-08-01T13:30:05;0.63;;;0.50;;
30303;SDS011;17112;48.636;10.152;2023-08-01T13:32:32;0.85;;;0.70;;
30303;SDS011;17112;48.636;10.152;2023-08-01T13:34:57;1.38;;;0.80;;
30303;SDS011;17112;48.636;10.152;2023-08-01T13:37:23;1.92;;;0.80;;
30303;SDS011;17112;48.636;10.152;2023-08-01T13:39:49;0.93;;;0.68;;
30303;SDS011;17112;48.636;10.152;2023-08-01T13:42:14;1.30;;;0.75;;
30303;SDS011;17112;48.636;10.152;2023-08-01T13:44:40;1.50;;;0.73;;
30303;SDS011;17112;48.636;10.152;2023-08-01T13:47:06;6.60;;;0.70;;
30303;SDS011;17112;48.636;10.152;2023-08-01T13:49:32;0.95;;;0.80;;
30303;SDS011;17112;48.636;10.152;2023-08-01T13:51:58;0.70;;;0.63;;
30303;SDS011;17112;48.636;10.152;2023-08-01T13:54:25;0.93;;;0.77;;
30303;SDS011;17112;48.636;10.152;2023-08-01T13:56:50;1.25;;;0.90;;
30303;SDS011;17112;48.636;10.152;2023-08-01T13:59:18;0.80;;;0.65;;
30303;SDS011;17112;48.636;10.152;2023-08-01T14:01:44;1.70;;;0.68;;
30303;SDS011;17112;48.636;10.152;2023-08-01T14:04:10;1.25;;;0.80;;
30303;SDS011;17112;48.636;10.152;2023-08-01T14:06:39;1.30;;;0.70;;
30303;SDS011;17112;48.636;10.152;2023-08-01T14:09:05;0.85;;;0.70;;
30303;SDS011;17112;48.636;10.152;2023-08-01T14:11:30;2.22;;;0.85;;
30303;SDS011;17112;48.636;10.152;2023-08-01T14:13:56;1.08;;;0.80;;
30303;SDS011;17112;48.636;10.152;2023-08-01T14:16:22;1.58;;;1.00;;
30303;SDS011;17112;48.636;10.152;2023-08-01T14:18:48;0.93;;;0.65;;
30303;SDS011;17112;48.636;10.152;2023-08-01T14:21:14;1.48;;;0.80;;
30303;SDS011;17112;48.636;10.152;2023-08-01T14:23:39;1.33;;;0.82;;
30303;SDS011;17112;48.636;10.152;2023-08-01T14:26:06;1.30;;;0.80;;
30303;SDS011;17112;48.636;10.152;2023-08-01T14:28:32;0.77;;;0.70;;
30303;SDS011;17112;48.636;10.152;2023-08-01T14:31:01;3.45;;;0.73;;
30303;SDS011;17112;48.636;10.152;2023-08-01T14:33:28;2.70;;;0.93;;
30303;SDS011;17112;48.636;10.152;2023-08-01T14:35:54;0.85;;;0.70;;
30303;SDS011;17112;48.636;10.152;2023-08-01T14:38:19;1.35;;;0.80;;